Time;durP1;ratioP1;P1;durP2;ratioP2;P2;SDS_P1;SDS_P2;PMS_P1;PMS_P2;Temp;Humidity;BMP_temperature;BMP_pressure;BME280_temperature;BME280_humidity;BME280_pressure;Samples;Min_cycle;Max_cycle;Signal;HPM_P1;HPM_P2
2023/04/20 00:02:06;;;;;;;10.87;6.50;;;5.30;99.90;;;;;;5089250;28;20196;-63
2023/04/20 00:04:33;;;;;;;14.00;7.33;;;5.30;99.90;;;;;;5081720;28;20257;-62
2023/04/20 00:06:58;;;;;;;8.73;6.57;;;5.30;99.90;;;;;;5078122;28;20438;-62
2023/04/20 00:09:25;;;;;;;10.20;6.60;;;5.30;99.90;;;;;;5080233;28;20522;-62
2023/04/20 00:11:51;;;;;;;10.10;6.93;;;5.30;99.90;;;;;;5077012;28;20697;-62
2023/04/20 00:14:18;;;;;;;12.10;6.67;;;5.30;99.90;;;;;;5084671;28;20511;-62
2023/04/20 00:16:43;;;;;;;9.27;6.80;;;5.30;99.90;;;;;;5080674;28;20533;-62
2023/04/20 00:19:09;;;;;;;13.03;6.83;;;5.30;99.90;;;;;;5082786;28;20451;-63
2023/04/20 00:21:35;;;;;;;9.07;6.40;;;5.20;99.90;;;;;;5086440;28;20208;-62
2023/04/20 00:24:01;;;;;;;10.40;6.70;;;5.20;99.90;;;;;;5087892;28;20181;-62
2023/04/20 00:26:26;;;;;;;8.57;6.53;;;5.20;99.90;;;;;;5079409;28;20242;-63
2023/04/20 00:28:52;;;;;;;9.87;6.60;;;5.20;99.90;;;;;;5074489;28;20190;-63
2023/04/20 00:31:19;;;;;;;9.50;7.27;;;5.20;99.90;;;;;;5081010;28;20194;-62
2023/04/20 00:33:46;;;;;;;12.73;7.60;;;5.10;99.90;;;;;;5087816;28;20511;-63
2023/04/20 00:36:11;;;;;;;10.27;6.80;;;5.10;99.90;;;;;;5082629;28;20492;-62
2023/04/20 00:38:37;;;;;;;11.90;7.10;;;5.10;99.90;;;;;;5075852;28;20954;-62
2023/04/20 00:41:02;;;;;;;9.33;6.43;;;5.10;99.90;;;;;;5074518;28;20249;-62
2023/04/20 00:43:28;;;;;;;9.87;6.60;;;5.10;99.90;;;;;;5082606;28;20178;-62
2023/04/20 00:45:54;;;;;;;10.57;6.87;;;5.10;99.90;;;;;;5071607;28;20185;-62
2023/04/20 00:48:20;;;;;;;10.90;7.30;;;5.10;99.90;;;;;;5078587;28;20166;-62
2023/04/20 00:50:49;;;;;;;11.63;7.10;;;5.10;99.90;;;;;;5083276;28;20197;-63
2023/04/20 00:53:15;;;;;;;10.20;7.20;;;5.10;99.90;;;;;;5080518;28;20429;-62
2023/04/20 00:55:42;;;;;;;11.63;7.10;;;5.10;99.90;;;;;;5078560;28;20928;-63
2023/04/20 00:58:08;;;;;;;10.93;7.03;;;5.10;99.90;;;;;;5084733;28;20425;-62
2023/04/20 01:00:34;;;;;;;12.00;6.87;;;5.00;99.90;;;;;;5073062;28;20456;-63
2023/04/20 01:03:00;;;;;;;9.63;6.93;;;5.00;99.90;;;;;;5076805;28;20240;-62
2023/04/20 01:05:25;;;;;;;8.23;6.53;;;5.00;99.90;;;;;;5080574;28;21085;-62
2023/04/20 01:07:51;;;;;;;10.23;7.30;;;5.00;99.90;;;;;;5072723;28;20177;-62
2023/04/20 01:10:17;;;;;;;11.67;7.43;;;5.00;99.90;;;;;;5082821;28;20186;-62
2023/04/20 01:12:43;;;;;;;9.80;7.13;;;5.00;99.90;;;;;;5082472;28;20483;-62
2023/04/20 01:15:09;;;;;;;9.63;6.80;;;5.00;99.90;;;;;;5081098;28;20167;-62
2023/04/20 01:17:36;;;;;;;10.30;7.40;;;4.90;99.90;;;;;;5079927;28;20190;-62
2023/04/20 01:20:03;;;;;;;10.07;7.10;;;5.00;99.90;;;;;;5084651;28;20451;-62
2023/04/20 01:22:29;;;;;;;12.43;7.30;;;4.90;99.90;;;;;;5081018;28;20451;-61
2023/04/20 01:24:55;;;;;;;8.93;6.67;;;5.00;99.90;;;;;;5078972;28;20883;-62
2023/04/20 01:27:20;;;;;;;11.53;7.63;;;4.90;99.90;;;;;;5072833;28;20636;-63
2023/04/20 01:29:46;;;;;;;11.17;7.53;;;4.90;99.90;;;;;;5086324;28;20566;-62
2023/04/20 01:32:12;;;;;;;13.00;7.43;;;4.90;99.90;;;;;;5074757;28;20190;-62
2023/04/20 01:34:39;;;;;;;12.27;7.10;;;4.90;99.90;;;;;;5078705;28;20201;-63
2023/04/20 01:37:07;;;;;;;12.03;7.17;;;4.90;99.90;;;;;;5073251;28;20737;-62
2023/04/20 01:39:37;;;;;;;12.37;8.07;;;4.90;99.90;;;;;;5074862;28;20428;-63
2023/04/20 01:42:04;;;;;;;14.57;7.80;;;4.90;99.90;;;;;;5088381;28;20512;-62
2023/04/20 01:44:29;;;;;;;13.90;8.70;;;4.90;99.90;;;;;;5087737;28;20480;-65
2023/04/20 01:46:55;;;;;;;14.33;8.27;;;4.90;99.90;;;;;;5073051;28;20417;-62
2023/04/20 01:49:20;;;;;;;16.83;8.37;;;4.90;99.90;;;;;;5080780;28;20170;-62
2023/04/20 01:51:46;;;;;;;12.30;7.67;;;4.90;99.90;;;;;;5088230;28;20198;-62
2023/04/20 01:54:11;;;;;;;14.33;8.63;;;4.90;99.90;;;;;;5088113;28;20347;-62
2023/04/20 01:56:37;;;;;;;14.00;7.80;;;4.90;99.90;;;;;;5081287;28;20726;-62
2023/04/20 01:59:03;;;;;;;11.37;8.30;;;4.90;99.90;;;;;;5086628;28;20166;-62
2023/04/20 02:01:28;;;;;;;10.33;7.70;;;4.90;99.90;;;;;;5076988;28;20801;-62
2023/04/20 02:03:54;;;;;;;13.40;8.77;;;4.90;99.90;;;;;;5086431;28;20177;-62
2023/04/20 02:06:19;;;;;;;13.00;8.13;;;4.90;99.90;;;;;;5086396;28;20407;-63
2023/04/20 02:08:45;;;;;;;20.00;9.00;;;4.90;99.90;;;;;;5074669;28;20181;-62
2023/04/20 02:11:11;;;;;;;12.10;7.97;;;4.80;99.90;;;;;;5082993;28;20236;-63
2023/04/20 02:13:37;;;;;;;11.73;7.80;;;4.90;99.90;;;;;;5088620;28;20174;-62
2023/04/20 02:16:03;;;;;;;11.10;8.27;;;4.80;99.90;;;;;;5080346;28;20498;-62
2023/04/20 02:18:29;;;;;;;12.40;7.70;;;4.80;99.90;;;;;;5080949;28;20206;-62
2023/04/20 02:20:55;;;;;;;11.30;7.50;;;4.80;99.90;;;;;;5079786;28;20193;-62
2023/04/20 02:23:20;;;;;;;12.47;7.40;;;4.80;99.90;;;;;;5087849;28;20856;-62
2023/04/20 02:25:46;;;;;;;11.40;7.90;;;4.80;99.90;;;;;;5084504;28;20435;-63
2023/04/20 02:28:12;;;;;;;13.70;8.77;;;4.70;99.90;;;;;;5085464;28;20178;-63
2023/04/20 02:30:37;;;;;;;11.07;7.60;;;4.80;99.90;;;;;;5080665;28;20692;-62
2023/04/20 02:33:03;;;;;;;12.83;8.50;;;4.80;99.90;;;;;;5081419;28;20204;-62
2023/04/20 02:35:28;;;;;;;12.83;7.90;;;4.80;99.90;;;;;;5086963;28;20209;-62
2023/04/20 02:37:54;;;;;;;15.00;8.43;;;4.70;99.90;;;;;;5071249;28;20665;-62
2023/04/20 02:40:20;;;;;;;13.93;8.60;;;4.70;99.90;;;;;;5080851;28;20186;-62
2023/04/20 02:42:45;;;;;;;13.67;9.13;;;4.70;99.90;;;;;;5084033;28;20178;-62
2023/04/20 02:45:11;;;;;;;11.30;7.67;;;4.80;99.90;;;;;;5079817;28;20228;-62
2023/04/20 02:47:37;;;;;;;11.13;8.20;;;4.70;99.90;;;;;;5084613;28;20177;-62
2023/04/20 02:50:03;;;;;;;11.20;7.57;;;4.70;99.90;;;;;;5083146;28;20200;-62
2023/04/20 02:52:28;;;;;;;13.53;8.73;;;4.70;99.90;;;;;;5078838;28;20190;-63
2023/04/20 02:54:54;;;;;;;14.90;8.43;;;4.80;99.90;;;;;;5078834;28;20424;-62
2023/04/20 02:57:19;;;;;;;10.03;7.80;;;4.70;99.90;;;;;;5083859;28;20170;-62
2023/04/20 02:59:45;;;;;;;12.17;8.30;;;4.70;99.90;;;;;;5077391;28;20181;-62
2023/04/20 03:02:11;;;;;;;17.57;9.70;;;4.70;99.90;;;;;;5075584;28;20194;-62
2023/04/20 03:04:38;;;;;;;14.37;9.47;;;4.70;99.90;;;;;;5087054;28;20181;-63
2023/04/20 03:07:03;;;;;;;14.70;10.30;;;4.70;99.90;;;;;;5079295;28;20185;-62
2023/04/20 03:09:29;;;;;;;16.97;9.77;;;4.70;99.90;;;;;;5089904;28;20435;-64
2023/04/20 03:11:55;;;;;;;18.00;9.27;;;4.80;99.90;;;;;;5084545;28;20206;-63
2023/04/20 03:14:20;;;;;;;13.67;8.83;;;4.80;99.90;;;;;;5081292;28;20227;-62
2023/04/20 03:16:46;;;;;;;13.73;8.80;;;4.80;99.90;;;;;;5078248;28;20174;-62
2023/04/20 03:19:12;;;;;;;13.07;8.83;;;4.80;99.90;;;;;;5083879;28;20212;-62
2023/04/20 03:21:38;;;;;;;16.23;9.63;;;4.80;99.90;;;;;;5084065;28;20579;-63
2023/04/20 03:24:05;;;;;;;11.93;7.97;;;4.80;99.90;;;;;;5080330;28;21169;-63
2023/04/20 03:26:31;;;;;;;11.70;8.67;;;4.80;99.90;;;;;;5087896;28;20174;-63
2023/04/20 03:28:57;;;;;;;13.60;8.17;;;4.80;99.90;;;;;;5083073;28;20428;-63
2023/04/20 03:31:23;;;;;;;14.10;7.80;;;4.80;99.90;;;;;;5083168;28;20308;-62
2023/04/20 03:33:48;;;;;;;13.33;8.13;;;4.80;99.90;;;;;;5081579;28;20288;-63
2023/04/20 03:36:14;;;;;;;17.57;7.77;;;4.80;99.90;;;;;;5082141;28;20166;-64
2023/04/20 03:38:39;;;;;;;11.67;7.93;;;4.80;99.90;;;;;;5078080;28;20194;-63
2023/04/20 03:41:06;;;;;;;14.50;8.23;;;4.80;99.90;;;;;;5082856;28;20198;-63
2023/04/20 03:43:32;;;;;;;12.60;9.30;;;4.80;99.90;;;;;;5088872;28;20260;-64
2023/04/20 03:45:58;;;;;;;11.30;8.30;;;4.80;99.90;;;;;;5087169;28;20519;-63
2023/04/20 03:48:24;;;;;;;19.40;9.43;;;4.80;99.90;;;;;;5084169;28;20424;-62
2023/04/20 03:50:50;;;;;;;15.17;9.20;;;4.80;99.90;;;;;;5083704;28;20222;-63
2023/04/20 03:53:16;;;;;;;12.67;8.43;;;4.80;99.90;;;;;;5073747;28;20190;-63
2023/04/20 03:55:41;;;;;;;16.80;9.20;;;4.80;99.90;;;;;;5082955;28;20424;-62
2023/04/20 03:58:07;;;;;;;12.37;8.53;;;4.80;99.90;;;;;;5081034;28;20231;-63
2023/04/20 04:00:33;;;;;;;16.73;9.60;;;4.80;99.90;;;;;;5080901;28;20665;-61
2023/04/20 04:02:59;;;;;;;15.03;9.10;;;4.80;99.90;;;;;;5080249;28;20425;-62
2023/04/20 04:05:25;;;;;;;12.27;8.20;;;4.80;99.90;;;;;;5078568;28;20186;-63
2023/04/20 04:07:50;;;;;;;13.33;9.33;;;4.80;99.90;;;;;;5081835;28;20974;-62
2023/04/20 04:10:17;;;;;;;15.07;8.30;;;4.80;99.90;;;;;;5083732;28;20611;-63
2023/04/20 04:12:44;;;;;;;14.07;9.80;;;4.80;99.90;;;;;;5080560;28;20214;-63
2023/04/20 04:15:11;;;;;;;15.30;9.60;;;4.80;99.90;;;;;;5079455;28;20416;-63
2023/04/20 04:17:36;;;;;;;13.67;9.17;;;4.80;99.90;;;;;;5082064;28;20471;-63
2023/04/20 04:20:02;;;;;;;14.53;8.87;;;4.80;99.90;;;;;;5081710;28;20412;-62
2023/04/20 04:24:56;;;;;;;14.23;9.17;;;4.80;99.90;;;;;;5062242;28;20473;-56
2023/04/20 04:27:22;;;;;;;12.80;7.97;;;4.80;99.90;;;;;;5067068;28;20898;-58
2023/04/20 04:29:48;;;;;;;15.70;9.10;;;4.80;99.90;;;;;;5069106;28;20190;-55
2023/04/20 04:32:15;;;;;;;31.07;10.90;;;4.80;99.90;;;;;;5068027;28;20504;-59
2023/04/20 04:34:43;;;;;;;14.80;9.53;;;4.80;99.90;;;;;;5068379;28;20948;-56
2023/04/20 04:37:10;;;;;;;13.07;8.03;;;4.80;99.90;;;;;;5047532;28;20979;-55
2023/04/20 04:39:36;;;;;;;13.10;9.13;;;4.80;99.90;;;;;;5061759;28;20568;-55
2023/04/20 04:42:02;;;;;;;13.93;9.00;;;4.80;99.90;;;;;;5063328;28;20425;-55
2023/04/20 04:44:28;;;;;;;12.67;8.63;;;4.80;99.90;;;;;;5063211;28;21039;-56
2023/04/20 04:46:54;;;;;;;14.17;8.80;;;4.80;99.90;;;;;;5061115;28;20178;-56
2023/04/20 04:49:20;;;;;;;18.43;9.50;;;4.80;99.90;;;;;;5062168;28;20457;-56
2023/04/20 04:51:46;;;;;;;10.90;8.30;;;4.80;99.90;;;;;;5055742;28;20256;-57
2023/04/20 04:54:12;;;;;;;13.23;9.30;;;4.70;99.90;;;;;;5054816;28;20505;-56
2023/04/20 04:56:38;;;;;;;12.17;8.87;;;4.80;99.90;;;;;;5063206;28;20432;-54
2023/04/20 04:59:03;;;;;;;15.73;10.67;;;4.80;99.90;;;;;;5064494;28;20752;-57
2023/04/20 05:01:29;;;;;;;16.90;8.80;;;4.80;99.90;;;;;;5064189;28;20182;-58
2023/04/20 05:03:54;;;;;;;16.10;9.00;;;4.80;99.90;;;;;;5065564;28;20719;-54
2023/04/20 05:06:20;;;;;;;12.53;9.00;;;4.80;99.90;;;;;;5062662;28;20178;-57
2023/04/20 05:08:46;;;;;;;13.37;8.70;;;4.80;99.90;;;;;;5066935;28;20289;-57
2023/04/20 05:11:11;;;;;;;13.83;9.40;;;4.80;99.90;;;;;;5062996;28;20654;-57
2023/04/20 05:13:37;;;;;;;16.83;8.70;;;4.80;99.90;;;;;;5061124;28;20194;-57
2023/04/20 05:16:03;;;;;;;11.63;8.37;;;4.80;99.90;;;;;;5062444;28;20174;-54
2023/04/20 05:18:28;;;;;;;12.17;8.73;;;4.80;99.90;;;;;;5051762;28;20179;-55
2023/04/20 05:20:54;;;;;;;11.83;8.67;;;4.80;99.90;;;;;;5063966;28;20178;-57
2023/04/20 05:23:20;;;;;;;13.90;9.60;;;4.80;99.90;;;;;;5061174;28;20206;-55
2023/04/20 05:25:45;;;;;;;14.17;9.47;;;4.80;99.90;;;;;;5063438;28;20174;-55
2023/04/20 05:28:11;;;;;;;13.23;9.60;;;4.90;99.90;;;;;;5061443;28;20190;-54
2023/04/20 05:30:36;;;;;;;16.67;9.90;;;4.90;99.90;;;;;;5062975;28;20202;-57
2023/04/20 05:33:02;;;;;;;16.17;10.20;;;4.90;99.90;;;;;;5063045;28;20221;-56
2023/04/20 05:35:28;;;;;;;16.60;10.60;;;4.90;99.90;;;;;;5064631;28;20181;-57
2023/04/20 05:37:53;;;;;;;14.30;10.50;;;4.90;99.90;;;;;;5060514;28;20174;-57
2023/04/20 05:40:19;;;;;;;13.00;9.00;;;4.90;99.90;;;;;;5060976;28;20661;-57
2023/04/20 05:42:44;;;;;;;13.50;8.83;;;4.90;99.90;;;;;;5062989;28;20198;-57
2023/04/20 05:45:10;;;;;;;17.30;8.97;;;4.90;99.90;;;;;;5064206;28;20299;-56
2023/04/20 05:47:36;;;;;;;25.60;22.90;;;4.80;99.90;;;;;;5064006;28;20182;-57
2023/04/20 05:50:01;;;;;;;12.27;9.20;;;4.80;99.90;;;;;;5061620;28;20198;-55
2023/04/20 05:52:27;;;;;;;13.80;8.80;;;4.80;99.90;;;;;;5057371;28;20190;-57
2023/04/20 05:54:53;;;;;;;14.50;9.33;;;4.80;99.90;;;;;;5053464;28;20263;-55
2023/04/20 05:57:18;;;;;;;18.70;9.20;;;4.80;99.90;;;;;;5061143;28;20781;-55
2023/04/20 05:59:44;;;;;;;14.00;7.97;;;4.80;99.90;;;;;;5051139;28;20211;-58
2023/04/20 06:02:10;;;;;;;12.80;8.80;;;4.80;99.90;;;;;;5060278;28;20209;-56
2023/04/20 06:04:35;;;;;;;14.40;9.80;;;4.80;99.90;;;;;;5048053;28;20190;-55
2023/04/20 06:07:01;;;;;;;13.63;8.60;;;4.80;99.90;;;;;;5058921;28;20647;-57
2023/04/20 06:09:26;;;;;;;15.20;9.83;;;4.80;99.90;;;;;;5059822;28;20216;-56
2023/04/20 06:11:52;;;;;;;17.40;10.70;;;4.80;99.90;;;;;;5063839;28;20630;-57
2023/04/20 06:14:17;;;;;;;14.93;10.17;;;4.80;99.90;;;;;;5058994;28;20256;-55
2023/04/20 06:16:43;;;;;;;16.40;10.83;;;4.80;99.90;;;;;;5055041;28;20258;-56
2023/04/20 06:19:09;;;;;;;15.60;10.70;;;4.90;99.90;;;;;;5058015;28;20249;-56
2023/04/20 06:21:35;;;;;;;16.67;9.80;;;4.90;99.90;;;;;;5061392;28;20842;-58
2023/04/20 06:24:00;;;;;;;15.33;10.60;;;4.90;99.90;;;;;;5053602;28;20245;-58
2023/04/20 06:26:26;;;;;;;16.80;10.57;;;4.90;99.90;;;;;;5055809;28;20468;-56
2023/04/20 06:28:52;;;;;;;22.30;11.40;;;4.90;99.90;;;;;;5066065;28;20872;-57
2023/04/20 06:31:18;;;;;;;20.07;10.57;;;4.80;99.90;;;;;;5054744;28;20205;-54
2023/04/20 06:33:44;;;;;;;15.90;10.30;;;4.80;99.90;;;;;;5057871;28;20191;-58
2023/04/20 06:36:10;;;;;;;18.17;11.30;;;4.80;99.90;;;;;;5058977;28;20486;-57
2023/04/20 06:38:35;;;;;;;16.13;10.23;;;4.80;99.90;;;;;;5062512;28;20170;-57
2023/04/20 06:41:01;;;;;;;19.80;10.30;;;4.80;99.90;;;;;;5056201;28;20550;-61
2023/04/20 06:43:28;;;;;;;15.27;10.50;;;4.80;99.90;;;;;;5058537;28;20278;-58
2023/04/20 06:45:53;;;;;;;16.50;10.90;;;4.90;99.90;;;;;;5060432;28;20428;-58
2023/04/20 06:48:19;;;;;;;17.03;10.70;;;4.90;99.90;;;;;;5064380;28;20444;-58
2023/04/20 06:50:49;;;;;;;16.73;9.63;;;5.00;99.90;;;;;;5058569;28;20202;-55
2023/04/20 06:53:15;;;;;;;16.63;10.63;;;5.00;99.90;;;;;;5054705;28;20195;-55
2023/04/20 06:55:40;;;;;;;16.13;10.33;;;5.00;99.90;;;;;;5056050;28;20441;-56
2023/04/20 06:58:06;;;;;;;17.10;10.13;;;5.00;99.90;;;;;;5061499;28;20429;-55
2023/04/20 07:00:32;;;;;;;17.53;10.37;;;5.00;99.90;;;;;;5063260;28;20171;-57
2023/04/20 07:02:57;;;;;;;18.87;11.00;;;5.00;99.90;;;;;;5057928;28;20199;-57
2023/04/20 07:05:23;;;;;;;16.23;10.53;;;5.00;99.90;;;;;;5068864;28;20186;-56
2023/04/20 07:07:50;;;;;;;17.47;10.33;;;5.00;99.90;;;;;;5057493;28;20651;-56
2023/04/20 07:10:16;;;;;;;16.40;10.10;;;5.00;99.90;;;;;;5063964;28;20203;-55
2023/04/20 07:12:42;;;;;;;18.10;10.80;;;5.00;99.90;;;;;;5065062;28;20504;-56
2023/04/20 07:15:08;;;;;;;18.13;10.37;;;5.00;99.90;;;;;;5061815;28;20574;-55
2023/04/20 07:17:34;;;;;;;14.50;9.83;;;5.00;99.90;;;;;;5064628;28;20412;-55
2023/04/20 07:20:04;;;;;;;22.40;11.80;;;5.10;99.90;;;;;;5062455;28;20451;-54
2023/04/20 07:22:30;;;;;;;17.00;10.93;;;5.10;99.90;;;;;;5051054;28;20555;-56
2023/04/20 07:24:56;;;;;;;21.90;11.63;;;5.10;99.90;;;;;;5060014;28;20527;-54
2023/04/20 07:27:22;;;;;;;18.10;9.80;;;5.00;99.90;;;;;;5069075;28;20469;-55
2023/04/20 07:29:47;;;;;;;15.53;10.20;;;5.10;99.90;;;;;;5067594;28;20214;-56
2023/04/20 07:32:13;;;;;;;15.83;9.53;;;5.10;99.90;;;;;;5065118;28;20652;-55
2023/04/20 07:34:39;;;;;;;15.30;9.83;;;5.10;99.90;;;;;;5067320;28;20193;-55
2023/04/20 07:37:04;;;;;;;16.93;9.90;;;5.10;99.90;;;;;;5065590;28;20187;-55
2023/04/20 07:39:30;;;;;;;15.60;10.30;;;5.10;99.90;;;;;;5067719;28;20313;-55
2023/04/20 07:41:56;;;;;;;15.50;10.00;;;5.10;99.90;;;;;;5060739;28;20191;-55
2023/04/20 07:44:21;;;;;;;12.53;8.90;;;5.20;99.90;;;;;;5066519;28;20224;-56
2023/04/20 07:46:48;;;;;;;16.23;9.63;;;5.20;99.90;;;;;;5059649;28;20777;-56
2023/04/20 07:49:14;;;;;;;14.93;9.93;;;5.20;99.90;;;;;;5063398;28;20260;-57
2023/04/20 07:51:40;;;;;;;15.47;9.80;;;5.20;99.90;;;;;;5061803;28;20563;-53
2023/04/20 07:54:06;;;;;;;18.20;10.30;;;5.20;99.90;;;;;;5070190;28;20456;-54
2023/04/20 07:56:32;;;;;;;16.93;9.90;;;5.20;99.90;;;;;;5063963;28;20278;-57
2023/04/20 07:58:58;;;;;;;16.20;10.00;;;5.20;99.90;;;;;;5066651;28;21020;-55
2023/04/20 08:01:24;;;;;;;16.73;10.73;;;5.20;99.90;;;;;;5065691;28;20613;-57
2023/04/20 08:03:50;;;;;;;15.17;10.30;;;5.20;99.90;;;;;;5058963;28;20575;-56
2023/04/20 08:06:16;;;;;;;17.10;9.90;;;5.20;99.90;;;;;;5059432;28;20437;-57
2023/04/20 08:08:41;;;;;;;14.43;9.53;;;5.20;99.90;;;;;;5067680;28;20420;-56
2023/04/20 08:11:07;;;;;;;14.47;9.53;;;5.20;99.90;;;;;;5067511;28;20287;-56
2023/04/20 08:13:34;;;;;;;19.60;11.30;;;5.30;99.90;;;;;;5066868;28;20238;-58
2023/04/20 08:16:00;;;;;;;18.93;11.23;;;5.30;99.90;;;;;;5069436;28;20163;-56
2023/04/20 08:18:25;;;;;;;14.17;10.10;;;5.30;99.90;;;;;;5057276;28;20432;-56
2023/04/20 08:20:51;;;;;;;16.07;9.90;;;5.40;99.90;;;;;;5058867;28;20187;-57
2023/04/20 08:23:16;;;;;;;13.27;9.23;;;5.40;99.90;;;;;;5065761;28;20225;-57
2023/04/20 08:25:42;;;;;;;15.30;10.23;;;5.40;99.90;;;;;;5066833;28;20213;-61
2023/04/20 08:28:07;;;;;;;15.00;10.10;;;5.40;99.90;;;;;;5060133;28;20183;-64
2023/04/20 08:30:33;;;;;;;14.63;10.20;;;5.40;99.90;;;;;;5056099;28;20221;-54
2023/04/20 08:32:59;;;;;;;12.70;8.47;;;5.50;99.90;;;;;;5060978;28;20294;-57
2023/04/20 08:35:25;;;;;;;11.93;8.60;;;5.50;99.90;;;;;;5066867;28;20185;-56
2023/04/20 08:37:50;;;;;;;14.00;9.10;;;5.50;99.90;;;;;;5063563;28;20612;-58
2023/04/20 08:40:18;;;;;;;13.07;8.83;;;5.50;99.90;;;;;;5064939;28;20182;-56
2023/04/20 08:42:45;;;;;;;12.27;8.60;;;5.40;99.90;;;;;;5056130;28;20563;-57
2023/04/20 08:45:11;;;;;;;13.60;8.37;;;5.40;99.90;;;;;;5059318;28;20833;-56
2023/04/20 08:47:38;;;;;;;13.03;8.50;;;5.50;99.90;;;;;;5064928;28;20441;-57
2023/04/20 08:50:04;;;;;;;12.93;8.27;;;5.50;99.90;;;;;;5064904;28;20452;-57
2023/04/20 08:52:31;;;;;;;12.00;8.40;;;5.60;99.90;;;;;;5058200;28;20532;-58
2023/04/20 08:54:57;;;;;;;11.30;7.47;;;5.70;99.90;;;;;;5061302;28;20427;-56
2023/04/20 08:57:22;;;;;;;9.30;6.77;;;5.80;99.90;;;;;;5064749;28;20440;-57
2023/04/20 08:59:48;;;;;;;9.43;6.97;;;5.80;99.90;;;;;;5065865;28;20201;-56
2023/04/20 09:02:14;;;;;;;8.80;6.10;;;5.80;99.90;;;;;;5065643;28;20166;-56
2023/04/20 09:04:40;;;;;;;9.43;6.83;;;5.80;99.90;;;;;;5059637;28;20209;-57
2023/04/20 09:07:15;;;;;;;10.20;7.13;;;5.90;99.90;;;;;;5061228;28;20452;-57
2023/04/20 09:09:52;;;;;;;9.00;6.30;;;5.90;99.90;;;;;;5061159;28;20416;-57
2023/04/20 09:12:17;;;;;;;7.20;5.70;;;5.80;99.90;;;;;;5059719;28;20802;-60
2023/04/20 09:14:45;;;;;;;8.63;6.00;;;5.80;99.90;;;;;;5066024;28;20459;-58
2023/04/20 09:17:13;;;;;;;7.47;5.90;;;5.80;99.90;;;;;;5067254;28;20244;-57
2023/04/20 09:19:39;;;;;;;6.97;5.40;;;5.90;99.90;;;;;;5064351;28;20783;-57
2023/04/20 09:22:05;;;;;;;8.40;6.10;;;5.90;99.90;;;;;;5056096;28;20440;-58
2023/04/20 09:24:35;;;;;;;7.80;5.87;;;6.00;99.90;;;;;;5068557;28;20444;-56
2023/04/20 09:27:13;;;;;;;8.47;6.30;;;6.00;99.90;;;;;;5069292;28;20417;-56
2023/04/20 09:29:39;;;;;;;8.97;7.00;;;6.10;99.90;;;;;;5064695;28;20424;-57
2023/04/20 09:32:05;;;;;;;8.70;6.20;;;6.20;99.90;;;;;;5061684;28;20433;-57
2023/04/20 09:34:40;;;;;;;8.07;6.03;;;6.20;99.90;;;;;;5067664;28;20203;-56
2023/04/20 09:37:09;;;;;;;9.13;6.40;;;6.20;99.90;;;;;;5060658;28;20201;-58
2023/04/20 09:39:39;;;;;;;7.90;5.73;;;6.20;99.90;;;;;;5068590;28;20405;-57
2023/04/20 09:42:08;;;;;;;8.87;7.10;;;6.20;99.90;;;;;;5066544;28;20936;-57
2023/04/20 09:44:37;;;;;;;8.87;6.60;;;6.20;99.90;;;;;;5066168;28;20447;-58
2023/04/20 09:47:03;;;;;;;8.80;6.80;;;6.20;99.90;;;;;;5053448;28;20421;-59
2023/04/20 09:49:29;;;;;;;8.27;6.20;;;6.30;99.90;;;;;;5043941;28;20497;-55
2023/04/20 09:51:55;;;;;;;8.03;5.80;;;6.40;99.90;;;;;;5062763;28;20770;-60
2023/04/20 09:54:21;;;;;;;9.70;6.13;;;6.40;99.90;;;;;;5068375;28;20205;-57
2023/04/20 09:56:48;;;;;;;7.63;6.00;;;6.40;99.90;;;;;;5075946;28;20959;-54
2023/04/20 09:59:18;;;;;;;7.83;5.97;;;6.40;99.90;;;;;;5064924;28;20490;-57
2023/04/20 10:01:43;;;;;;;7.97;6.40;;;6.50;99.90;;;;;;5055779;28;20505;-57
2023/04/20 10:04:09;;;;;;;6.30;5.53;;;6.50;99.90;;;;;;5069462;28;21003;-58
2023/04/20 10:06:36;;;;;;;7.23;5.33;;;6.50;99.90;;;;;;5060541;28;20260;-59
2023/04/20 10:09:04;;;;;;;5.93;4.90;;;6.60;99.90;;;;;;5062176;28;20243;-58
2023/04/20 10:11:34;;;;;;;6.47;4.67;;;6.60;99.90;;;;;;5063442;28;20503;-58
2023/04/20 10:14:12;;;;;;;5.13;4.43;;;6.60;99.90;;;;;;5063863;28;20455;-59
2023/04/20 10:16:38;;;;;;;8.67;4.30;;;6.60;99.90;;;;;;5058514;28;20803;-57
2023/04/20 10:19:04;;;;;;;4.97;4.30;;;6.60;99.90;;;;;;5060859;28;20417;-58
2023/04/20 10:21:33;;;;;;;4.10;3.70;;;6.60;99.90;;;;;;5061631;28;20235;-57
2023/04/20 10:24:01;;;;;;;3.57;2.83;;;6.70;99.90;;;;;;5055961;28;20225;-57
2023/04/20 10:26:37;;;;;;;3.50;3.20;;;6.80;99.90;;;;;;5060470;28;20792;-57
2023/04/20 10:29:02;;;;;;;3.30;3.00;;;6.90;99.90;;;;;;5064756;28;20431;-58
2023/04/20 10:31:39;;;;;;;3.40;2.70;;;6.90;99.90;;;;;;5057397;28;20468;-58
2023/04/20 10:34:06;;;;;;;4.10;2.93;;;7.00;99.90;;;;;;5061317;28;20194;-54
2023/04/20 10:36:35;;;;;;;4.40;3.53;;;7.00;99.90;;;;;;5052378;28;20428;-56
2023/04/20 10:39:15;;;;;;;3.10;2.90;;;7.00;99.90;;;;;;5057116;28;20429;-57
2023/04/20 10:42:00;;;;;;;5.90;3.67;;;7.00;99.90;;;;;;5059008;28;20436;-60
2023/04/20 10:44:26;;;;;;;3.97;3.50;;;6.90;99.90;;;;;;5062083;28;20502;-56
2023/04/20 10:46:52;;;;;;;3.37;3.07;;;6.80;99.90;;;;;;5055454;28;20922;-58
2023/04/20 10:49:18;;;;;;;3.70;3.23;;;6.80;99.90;;;;;;5063300;28;20701;-55
2023/04/20 10:51:48;;;;;;;3.90;3.50;;;6.70;99.90;;;;;;5059832;28;20477;-58
2023/04/20 10:54:14;;;;;;;4.33;3.37;;;6.70;99.90;;;;;;5054491;28;20240;-56
2023/04/20 10:56:44;;;;;;;4.03;2.87;;;6.70;99.90;;;;;;5060182;28;20855;-59
2023/04/20 10:59:15;;;;;;;3.23;2.90;;;6.70;99.90;;;;;;5061137;28;20179;-58
2023/04/20 11:01:42;;;;;;;2.50;2.30;;;6.70;99.90;;;;;;5060151;28;20463;-61
2023/04/20 11:04:09;;;;;;;3.30;2.97;;;6.70;99.90;;;;;;5058036;28;20448;-60
2023/04/20 11:06:36;;;;;;;3.13;2.93;;;6.60;99.90;;;;;;5059635;28;20429;-59
2023/04/20 11:09:02;;;;;;;3.70;3.37;;;6.60;99.90;;;;;;5057031;28;20427;-59
2023/04/20 11:11:28;;;;;;;4.83;3.23;;;6.60;99.90;;;;;;5056766;28;20694;-60
2023/04/20 11:14:10;;;;;;;3.50;3.20;;;6.50;99.90;;;;;;5054438;28;20194;-55
2023/04/20 11:16:36;;;;;;;4.07;3.67;;;6.50;99.90;;;;;;5055314;28;20179;-59
2023/04/20 11:19:03;;;;;;;4.70;3.43;;;6.40;99.90;;;;;;5059547;28;20417;-59
2023/04/20 11:21:37;;;;;;;4.50;4.00;;;6.40;99.90;;;;;;5055699;28;20448;-60
2023/04/20 11:24:04;;;;;;;5.03;3.90;;;6.30;99.90;;;;;;5058931;28;20464;-58
2023/04/20 11:26:37;;;;;;;3.60;3.00;;;6.30;99.90;;;;;;5061636;28;20483;-59
2023/04/20 11:29:03;;;;;;;4.20;3.00;;;6.30;99.90;;;;;;5059422;28;20519;-59
2023/04/20 11:31:29;;;;;;;3.50;3.20;;;6.30;99.90;;;;;;5059222;28;20560;-61
2023/04/20 11:33:55;;;;;;;3.30;3.00;;;6.30;99.90;;;;;;5054071;28;20194;-60
2023/04/20 11:36:25;;;;;;;2.37;2.20;;;6.30;99.90;;;;;;5054776;28;20609;-59
2023/04/20 11:38:51;;;;;;;3.03;2.77;;;6.20;99.90;;;;;;5063411;28;20175;-58
2023/04/20 11:41:17;;;;;;;2.90;2.70;;;6.20;99.90;;;;;;5061435;28;20432;-66
2023/04/20 11:43:44;;;;;;;3.60;2.70;;;6.30;99.90;;;;;;5056607;28;20456;-59
2023/04/20 11:46:19;;;;;;;3.43;2.87;;;6.30;99.90;;;;;;5063502;28;20953;-60
2023/04/20 11:48:46;;;;;;;3.43;3.00;;;6.30;99.90;;;;;;5059273;28;20972;-59
2023/04/20 11:51:13;;;;;;;3.30;3.00;;;6.30;99.90;;;;;;5058452;28;20464;-59
2023/04/20 11:53:39;;;;;;;4.23;3.53;;;6.30;99.90;;;;;;5057075;28;20445;-60
2023/04/20 11:56:05;;;;;;;5.83;4.10;;;6.30;99.90;;;;;;5059331;28;20459;-58
2023/04/20 11:58:31;;;;;;;5.37;3.50;;;6.30;99.90;;;;;;5054661;28;20444;-58
2023/04/20 12:00:56;;;;;;;4.63;3.53;;;6.20;99.90;;;;;;5056093;28;20206;-60
2023/04/20 12:03:22;;;;;;;4.17;3.70;;;6.20;99.90;;;;;;5061679;28;20194;-59
2023/04/20 12:05:47;;;;;;;5.03;3.20;;;6.10;99.90;;;;;;5055524;28;20277;-60
2023/04/20 12:08:13;;;;;;;4.00;3.37;;;6.10;99.90;;;;;;5058858;28;20744;-59
2023/04/20 12:10:39;;;;;;;5.20;4.17;;;6.10;99.90;;;;;;5055164;28;20217;-58
2023/04/20 12:13:05;;;;;;;4.63;3.43;;;6.10;99.90;;;;;;5054570;28;20190;-58
2023/04/20 12:15:30;;;;;;;3.03;2.83;;;6.20;99.90;;;;;;5056232;28;20225;-59
2023/04/20 12:17:56;;;;;;;4.43;3.10;;;6.20;99.90;;;;;;5056759;28;20482;-59
2023/04/20 12:20:22;;;;;;;4.30;3.90;;;6.20;99.90;;;;;;5052517;28;20179;-59
2023/04/20 12:22:48;;;;;;;3.53;3.20;;;6.30;99.90;;;;;;5054247;28;20967;-59
2023/04/20 12:25:13;;;;;;;7.00;5.30;;;6.30;99.90;;;;;;5060162;28;20187;-53
2023/04/20 12:27:39;;;;;;;7.50;6.20;;;6.30;99.90;;;;;;5057722;28;20189;-59
2023/04/20 12:30:08;;;;;;;5.40;4.27;;;6.30;99.90;;;;;;5058229;28;20684;-60
2023/04/20 12:32:33;;;;;;;5.43;3.17;;;6.30;99.90;;;;;;5055027;28;20171;-57
2023/04/20 12:34:59;;;;;;;2.60;2.40;;;6.30;99.90;;;;;;5053024;28;20429;-60
2023/04/20 12:37:26;;;;;;;3.83;2.77;;;6.30;99.90;;;;;;5058078;28;20179;-58
2023/04/20 12:39:51;;;;;;;3.30;3.00;;;6.20;99.90;;;;;;5060785;28;20175;-59
2023/04/20 12:42:17;;;;;;;3.97;3.53;;;6.20;99.90;;;;;;5057240;28;20433;-58
2023/04/20 12:44:43;;;;;;;2.97;2.73;;;6.20;99.90;;;;;;5056378;28;20186;-56
2023/04/20 12:47:08;;;;;;;2.53;2.30;;;6.20;99.90;;;;;;5057837;28;20869;-55